Time;durP1;ratioP1;P1;durP2;ratioP2;P2;SDS_P1;SDS_P2;PMS_P1;PMS_P2;Temp;Humidity;BMP_temperature;BMP_pressure;BME280_temperature;BME280_humidity;BME280_pressure;Samples;Min_cycle;Max_cycle;Signal;HPM_P1;HPM_P2
2022/08/26 00:00:47;;;;;;;9.13;4.75;;;;;;;;;;5030450;28;20064;-72
2022/08/26 00:03:51;;;;;;;9.75;5.28;;;;;;;;;;5030599;28;20033;-72
2022/08/26 00:06:56;;;;;;;11.70;4.65;;;;;;;;;;5029641;28;20046;-73
2022/08/26 00:10:00;;;;;;;16.67;5.88;;;;;;;;;;5031996;28;20041;-72
2022/08/26 00:13:05;;;;;;;9.95;5.80;;;;;;;;;;5034014;28;20048;-73
2022/08/26 00:16:09;;;;;;;10.27;5.30;;;;;;;;;;5033626;28;20037;-72
2022/08/26 00:19:13;;;;;;;9.60;5.95;;;;;;;;;;5033926;28;20053;-72
2022/08/26 00:22:17;;;;;;;12.63;5.97;;;;;;;;;;5033933;28;20045;-72
2022/08/26 00:25:22;;;;;;;11.50;6.50;;;;;;;;;;5034025;28;20056;-72
2022/08/26 00:28:26;;;;;;;14.43;6.35;;;;;;;;;;5033989;28;20072;-72
2022/08/26 00:31:31;;;;;;;15.15;6.55;;;;;;;;;;5033932;28;20207;-73
2022/08/26 00:34:36;;;;;;;13.80;7.22;;;;;;;;;;5033738;28;20056;-73
2022/08/26 00:37:41;;;;;;;13.35;7.93;;;;;;;;;;5033840;28;20048;-71
2022/08/26 00:40:46;;;;;;;13.45;7.95;;;;;;;;;;5033698;28;20409;-72
2022/08/26 00:43:51;;;;;;;16.50;7.25;;;;;;;;;;5033789;28;20041;-72
2022/08/26 00:46:59;;;;;;;18.75;8.57;;;;;;;;;;5033333;28;20053;-72
2022/08/26 00:50:06;;;;;;;12.20;8.80;;;;;;;;;;5033656;28;20049;-72
2022/08/26 00:53:20;;;;;;;14.70;9.50;;;;;;;;;;5033808;28;20041;-72
2022/08/26 00:56:28;;;;;;;16.67;9.60;;;;;;;;;;5033375;28;20049;-72
2022/08/26 00:59:32;;;;;;;14.82;8.82;;;;;;;;;;5033559;28;20064;-72
2022/08/26 01:02:37;;;;;;;17.90;10.35;;;;;;;;;;5032677;28;20064;-72
2022/08/26 01:05:42;;;;;;;16.90;8.93;;;;;;;;;;5032616;28;20060;-72
2022/08/26 01:08:46;;;;;;;15.85;9.38;;;;;;;;;;5033299;28;20045;-72
2022/08/26 01:11:53;;;;;;;20.40;8.77;;;;;;;;;;5033413;28;20045;-72
2022/08/26 01:14:58;;;;;;;21.73;10.35;;;;;;;;;;5033084;28;20049;-72
2022/08/26 01:18:04;;;;;;;18.73;9.88;;;;;;;;;;5032374;28;20200;-72
2022/08/26 01:21:17;;;;;;;20.45;10.25;;;;;;;;;;5031943;28;20060;-72
2022/08/26 01:24:24;;;;;;;19.10;11.13;;;;;;;;;;5032912;28;20040;-72
2022/08/26 01:27:31;;;;;;;15.45;10.57;;;;;;;;;;5032940;28;20056;-72
2022/08/26 01:30:36;;;;;;;20.25;10.63;;;;;;;;;;5033372;28;20493;-72
2022/08/26 01:33:44;;;;;;;16.20;9.48;;;;;;;;;;5032619;28;20044;-72
2022/08/26 01:36:49;;;;;;;16.60;10.05;;;;;;;;;;5032661;28;20060;-73
2022/08/26 01:39:55;;;;;;;18.92;9.98;;;;;;;;;;5032838;28;20528;-72
2022/08/26 01:43:01;;;;;;;18.58;10.68;;;;;;;;;;5032717;28;20608;-72
2022/08/26 01:46:06;;;;;;;19.80;10.35;;;;;;;;;;5032705;28;20040;-72
2022/08/26 01:49:10;;;;;;;19.83;10.43;;;;;;;;;;5032515;28;20508;-72
2022/08/26 01:52:20;;;;;;;16.83;9.32;;;;;;;;;;5032706;28;20633;-72
2022/08/26 01:55:26;;;;;;;18.80;10.60;;;;;;;;;;5032592;28;20527;-72
2022/08/26 01:58:39;;;;;;;17.35;10.20;;;;;;;;;;5032194;28;20408;-72
2022/08/26 02:01:43;;;;;;;23.38;9.90;;;;;;;;;;5032109;28;20056;-73
2022/08/26 02:04:50;;;;;;;20.27;10.57;;;;;;;;;;5032138;28;20048;-72
2022/08/26 02:07:55;;;;;;;21.25;9.18;;;;;;;;;;5031504;28;20048;-72
2022/08/26 02:10:59;;;;;;;16.35;8.90;;;;;;;;;;5032124;28;20045;-72
2022/08/26 02:14:05;;;;;;;19.08;9.02;;;;;;;;;;5032070;28;20041;-72
2022/08/26 02:17:10;;;;;;;20.95;10.32;;;;;;;;;;5032038;28;20048;-72
2022/08/26 02:20:16;;;;;;;16.70;8.73;;;;;;;;;;5031118;28;20049;-72
2022/08/26 02:23:21;;;;;;;20.67;9.25;;;;;;;;;;5031743;28;20053;-72
2022/08/26 02:26:25;;;;;;;18.17;8.50;;;;;;;;;;5031389;28;20049;-73
2022/08/26 02:29:32;;;;;;;17.23;8.48;;;;;;;;;;5031960;28;20053;-72
2022/08/26 02:32:36;;;;;;;13.52;8.07;;;;;;;;;;5031285;28;20040;-72
2022/08/26 02:35:40;;;;;;;15.52;9.00;;;;;;;;;;5031675;28;20048;-72
2022/08/26 02:38:44;;;;;;;18.30;8.02;;;;;;;;;;5031552;28;20516;-72
2022/08/26 02:41:48;;;;;;;13.02;8.23;;;;;;;;;;5030797;28;20052;-72
2022/08/26 02:44:54;;;;;;;16.88;8.15;;;;;;;;;;5031541;28;20057;-72
2022/08/26 02:47:59;;;;;;;16.67;8.18;;;;;;;;;;5031327;28;20048;-72
2022/08/26 02:51:04;;;;;;;15.85;9.02;;;;;;;;;;5031443;28;20037;-72
2022/08/26 02:54:08;;;;;;;15.60;8.38;;;;;;;;;;5031579;28;20036;-72
2022/08/26 02:57:12;;;;;;;14.05;8.02;;;;;;;;;;5031185;28;20060;-71
2022/08/26 03:00:17;;;;;;;14.15;8.65;;;;;;;;;;5031114;28;20048;-71
2022/08/26 03:03:22;;;;;;;15.93;9.13;;;;;;;;;;5030152;28;20045;-72
2022/08/26 03:06:27;;;;;;;15.75;8.55;;;;;;;;;;5031448;28;20037;-72
2022/08/26 03:09:32;;;;;;;16.33;9.20;;;;;;;;;;5031490;28;20044;-72
2022/08/26 03:12:36;;;;;;;18.70;9.52;;;;;;;;;;5030355;28;20045;-72
2022/08/26 03:15:41;;;;;;;18.38;8.80;;;;;;;;;;5031578;28;20043;-72
2022/08/26 03:18:45;;;;;;;18.45;9.18;;;;;;;;;;5031426;28;20041;-72
2022/08/26 03:21:50;;;;;;;17.67;8.60;;;;;;;;;;5031138;28;20056;-72
2022/08/26 03:24:54;;;;;;;16.13;9.27;;;;;;;;;;5030065;28;20052;-72
2022/08/26 03:27:59;;;;;;;15.52;8.93;;;;;;;;;;5030955;28;20048;-72
2022/08/26 03:31:03;;;;;;;17.17;9.15;;;;;;;;;;5030152;28;20040;-72
2022/08/26 03:34:07;;;;;;;19.13;9.18;;;;;;;;;;5030981;28;20060;-72
2022/08/26 03:37:12;;;;;;;15.82;8.98;;;;;;;;;;5030817;28;20044;-72
2022/08/26 03:40:16;;;;;;;15.52;9.07;;;;;;;;;;5031077;28;20044;-72
2022/08/26 03:43:25;;;;;;;17.48;9.00;;;;;;;;;;5031008;28;20052;-72
2022/08/26 03:46:31;;;;;;;16.50;10.52;;;;;;;;;;5035073;28;20057;-72
2022/08/26 03:49:36;;;;;;;18.63;9.73;;;;;;;;;;5035264;28;20424;-72
2022/08/26 03:52:40;;;;;;;16.65;10.00;;;;;;;;;;5034203;28;20048;-72
2022/08/26 03:55:44;;;;;;;17.35;9.70;;;;;;;;;;5035876;28;20096;-71
2022/08/26 03:58:49;;;;;;;18.98;11.13;;;;;;;;;;5035139;28;20415;-71
2022/08/26 04:01:53;;;;;;;17.83;10.00;;;;;;;;;;5034862;28;20508;-71
2022/08/26 04:04:57;;;;;;;18.25;10.32;;;;;;;;;;5034706;28;20040;-72
2022/08/26 04:08:02;;;;;;;18.98;9.85;;;;;;;;;;5033945;28;20068;-72
2022/08/26 04:11:06;;;;;;;17.88;9.88;;;;;;;;;;5022557;28;20620;-71
2022/08/26 04:14:13;;;;;;;17.02;10.05;;;;;;;;;;5034567;28;20044;-73
2022/08/26 04:17:18;;;;;;;16.70;9.57;;;;;;;;;;5022396;28;20041;-71
2022/08/26 04:20:23;;;;;;;14.50;10.00;;;;;;;;;;5034376;28;20528;-71
2022/08/26 04:23:27;;;;;;;17.85;10.18;;;;;;;;;;5034465;28;20044;-72
2022/08/26 04:26:36;;;;;;;15.15;9.60;;;;;;;;;;5033292;28;20052;-71
2022/08/26 04:29:40;;;;;;;14.65;9.60;;;;;;;;;;5034254;28;20485;-71
2022/08/26 04:32:44;;;;;;;16.80;10.10;;;;;;;;;;5034163;28;20060;-72
2022/08/26 04:35:48;;;;;;;20.90;13.00;;;;;;;;;;5034016;28;20048;-73
2022/08/26 04:38:53;;;;;;;20.00;14.38;;;;;;;;;;5033933;28;20133;-72
2022/08/26 04:41:57;;;;;;;18.98;12.65;;;;;;;;;;5033825;28;20064;-72
2022/08/26 04:45:02;;;;;;;19.38;9.77;;;;;;;;;;5034042;28;20040;-73
2022/08/26 04:48:07;;;;;;;22.13;10.93;;;;;;;;;;5033571;28;20040;-72
2022/08/26 04:51:12;;;;;;;27.33;18.27;;;;;;;;;;5033869;28;20536;-71
2022/08/26 04:54:16;;;;;;;20.35;13.55;;;;;;;;;;5033623;28;20048;-72
2022/08/26 04:57:22;;;;;;;16.42;10.18;;;;;;;;;;5033513;28;20040;-72
2022/08/26 05:00:26;;;;;;;21.35;9.73;;;;;;;;;;5033488;28;20048;-73
2022/08/26 05:03:30;;;;;;;20.63;9.70;;;;;;;;;;5033609;28;20060;-72
2022/08/26 05:06:34;;;;;;;21.33;9.45;;;;;;;;;;5033275;28;20040;-72
2022/08/26 05:09:40;;;;;;;15.52;8.65;;;;;;;;;;5032738;28;20124;-73
2022/08/26 05:12:45;;;;;;;15.30;8.55;;;;;;;;;;5032632;28;20064;-72
2022/08/26 05:15:50;;;;;;;16.73;8.48;;;;;;;;;;5032481;28;20052;-72
2022/08/26 05:18:54;;;;;;;15.82;7.40;;;;;;;;;;5033493;28;20405;-73
2022/08/26 05:21:59;;;;;;;15.23;7.30;;;;;;;;;;5033107;28;20060;-72
2022/08/26 05:25:04;;;;;;;18.17;8.27;;;;;;;;;;5031998;28;20080;-72
2022/08/26 05:28:09;;;;;;;12.82;7.10;;;;;;;;;;5033051;28;20068;-72
2022/08/26 05:31:15;;;;;;;14.45;6.90;;;;;;;;;;5032976;28;20048;-72
2022/08/26 05:34:20;;;;;;;12.85;7.95;;;;;;;;;;5033125;28;20044;-73
2022/08/26 05:37:24;;;;;;;9.32;7.22;;;;;;;;;;5032860;28;20040;-72
2022/08/26 05:40:29;;;;;;;15.57;7.00;;;;;;;;;;5032803;28;20041;-72
2022/08/26 05:43:34;;;;;;;10.25;6.43;;;;;;;;;;5033122;28;20056;-67
2022/08/26 05:46:39;;;;;;;10.77;6.85;;;;;;;;;;5032637;28;20044;-67
2022/08/26 05:49:43;;;;;;;12.93;6.90;;;;;;;;;;5032738;28;20216;-67
2022/08/26 05:52:48;;;;;;;11.90;6.97;;;;;;;;;;5032636;28;20048;-67
2022/08/26 05:55:53;;;;;;;16.83;8.07;;;;;;;;;;5032778;28;20049;-67
2022/08/26 05:58:57;;;;;;;18.65;9.50;;;;;;;;;;5032649;28;20507;-68
2022/08/26 06:02:01;;;;;;;18.35;9.73;;;;;;;;;;5032425;28;20045;-68
2022/08/26 06:05:06;;;;;;;23.13;9.93;;;;;;;;;;5032409;28;20041;-67
2022/08/26 06:08:12;;;;;;;17.70;9.20;;;;;;;;;;5031719;28;20053;-67
2022/08/26 06:11:18;;;;;;;16.20;9.00;;;;;;;;;;5032232;28;20048;-67
2022/08/26 06:14:23;;;;;;;18.52;9.32;;;;;;;;;;5032013;28;20040;-68
2022/08/26 06:17:28;;;;;;;19.00;9.20;;;;;;;;;;5032214;28;20086;-68
2022/08/26 06:20:32;;;;;;;15.45;9.15;;;;;;;;;;5031904;28;20524;-69
2022/08/26 06:27:01;;;;;;;14.13;8.68;;;;;;;;;;5031491;28;20312;-65
2022/08/26 06:30:05;;;;;;;15.98;8.45;;;;;;;;;;5031535;28;20044;-65
2022/08/26 06:33:10;;;;;;;21.45;9.38;;;;;;;;;;5031725;28;20048;-67
2022/08/26 06:36:16;;;;;;;13.98;8.82;;;;;;;;;;5031816;28;20048;-65
2022/08/26 06:39:20;;;;;;;16.67;8.35;;;;;;;;;;5031855;28;20049;-66
2022/08/26 06:42:25;;;;;;;22.75;9.73;;;;;;;;;;5031251;28;20061;-68
2022/08/26 06:45:29;;;;;;;19.80;8.32;;;;;;;;;;5031695;28;20052;-68
2022/08/26 06:48:34;;;;;;;18.63;7.88;;;;;;;;;;5031696;28;20049;-68
2022/08/26 06:51:39;;;;;;;21.27;8.77;;;;;;;;;;5031397;28;20052;-68
2022/08/26 06:54:43;;;;;;;14.63;8.63;;;;;;;;;;5031110;28;20056;-68
2022/08/26 06:57:48;;;;;;;13.65;8.15;;;;;;;;;;5031516;28;20040;-68
2022/08/26 07:00:52;;;;;;;14.20;8.32;;;;;;;;;;5031096;28;20053;-68
2022/08/26 07:03:58;;;;;;;15.50;7.68;;;;;;;;;;5031517;28;20049;-68
2022/08/26 07:07:02;;;;;;;15.88;7.53;;;;;;;;;;5031451;28;20037;-68
2022/08/26 07:10:10;;;;;;;16.65;6.65;;;;;;;;;;5031524;28;20055;-69
2022/08/26 07:13:15;;;;;;;16.33;7.15;;;;;;;;;;5030942;28;20048;-68
2022/08/26 07:16:20;;;;;;;17.35;8.55;;;;;;;;;;5031168;28;20052;-68
2022/08/26 07:19:25;;;;;;;12.38;6.90;;;;;;;;;;5031471;28;20049;-69
2022/08/26 07:22:29;;;;;;;16.40;7.35;;;;;;;;;;5030924;28;20064;-68
2022/08/26 07:25:34;;;;;;;20.02;7.57;;;;;;;;;;5032237;28;20055;-68
2022/08/26 07:28:39;;;;;;;10.82;6.95;;;;;;;;;;5031574;28;20057;-69
2022/08/26 07:31:44;;;;;;;9.35;6.32;;;;;;;;;;5031322;28;20048;-68
2022/08/26 07:34:48;;;;;;;15.02;6.70;;;;;;;;;;5031113;28;20300;-68
2022/08/26 07:37:52;;;;;;;18.40;7.53;;;;;;;;;;5031297;28;20045;-68
2022/08/26 07:40:57;;;;;;;17.17;7.45;;;;;;;;;;5030872;28;20405;-68
2022/08/26 07:44:01;;;;;;;12.48;6.97;;;;;;;;;;5031133;28;20074;-68
2022/08/26 07:47:06;;;;;;;19.25;8.68;;;;;;;;;;5030073;28;20045;-68
2022/08/26 07:50:10;;;;;;;16.48;8.00;;;;;;;;;;5031443;28;20106;-68
2022/08/26 07:53:14;;;;;;;22.33;9.65;;;;;;;;;;5030672;28;20052;-69
2022/08/26 07:56:19;;;;;;;18.88;9.40;;;;;;;;;;5030759;28;20056;-69
2022/08/26 07:59:25;;;;;;;14.38;7.32;;;;;;;;;;5030279;28;20033;-67
2022/08/26 08:02:29;;;;;;;21.33;7.95;;;;;;;;;;5030676;28;20064;-67
2022/08/26 08:05:35;;;;;;;18.17;8.48;;;;;;;;;;5030701;28;20044;-70
2022/08/26 08:08:40;;;;;;;18.83;9.02;;;;;;;;;;5030864;28;20054;-70
2022/08/26 08:11:44;;;;;;;12.50;7.00;;;;;;;;;;5030936;28;20040;-66
2022/08/26 08:14:50;;;;;;;16.50;6.05;;;;;;;;;;5030930;28;20516;-68
2022/08/26 08:17:56;;;;;;;13.98;6.90;;;;;;;;;;5030665;28;20052;-70
2022/08/26 08:21:02;;;;;;;12.30;7.13;;;;;;;;;;5030613;28;20503;-69
2022/08/26 08:24:06;;;;;;;11.70;5.97;;;;;;;;;;5030633;28;20072;-69
2022/08/26 08:27:11;;;;;;;11.50;6.47;;;;;;;;;;5030220;28;20058;-69
2022/08/26 08:30:16;;;;;;;13.55;6.90;;;;;;;;;;5030690;28;20040;-69
2022/08/26 08:33:21;;;;;;;10.80;5.97;;;;;;;;;;5034353;28;20045;-69
2022/08/26 08:36:25;;;;;;;13.25;5.28;;;;;;;;;;5033664;28;20036;-69
2022/08/26 08:39:31;;;;;;;9.05;5.60;;;;;;;;;;5033951;28;20052;-69
2022/08/26 08:42:44;;;;;;;9.30;4.78;;;;;;;;;;5032631;28;20046;-69
2022/08/26 08:45:59;;;;;;;8.75;5.22;;;;;;;;;;5033554;28;20038;-68
2022/08/26 08:49:04;;;;;;;8.05;5.60;;;;;;;;;;5033728;28;20148;-69
2022/08/26 08:52:21;;;;;;;18.63;5.88;;;;;;;;;;5033873;28;20038;-68
2022/08/26 08:55:29;;;;;;;7.75;4.88;;;;;;;;;;5033564;28;20056;-70
2022/08/26 08:58:39;;;;;;;8.77;5.07;;;;;;;;;;5033695;28;20037;-69
2022/08/26 09:02:04;;;;;;;6.30;4.80;;;;;;;;;;5033402;28;20284;-69
2022/08/26 09:05:20;;;;;;;10.05;5.70;;;;;;;;;;5033371;28;20038;-69
2022/08/26 09:08:28;;;;;;;9.52;5.90;;;;;;;;;;5033280;28;20064;-68
2022/08/26 09:11:32;;;;;;;10.27;5.57;;;;;;;;;;5033383;28;20060;-68
2022/08/26 09:14:37;;;;;;;6.28;4.45;;;;;;;;;;5033325;28;20056;-68
2022/08/26 09:17:46;;;;;;;7.88;5.30;;;;;;;;;;5033317;28;20064;-68
2022/08/26 09:21:04;;;;;;;7.82;4.40;;;;;;;;;;5032960;28;20045;-68
2022/08/26 09:24:08;;;;;;;6.65;4.78;;;;;;;;;;5033110;28;20034;-68
2022/08/26 09:27:32;;;;;;;9.18;5.32;;;;;;;;;;5033073;28;20046;-68
2022/08/26 09:30:37;;;;;;;9.23;4.55;;;;;;;;;;5033204;28;20037;-68
2022/08/26 09:33:42;;;;;;;8.02;4.45;;;;;;;;;;5032957;28;20500;-68
2022/08/26 09:36:50;;;;;;;11.63;5.13;;;;;;;;;;5032666;28;20041;-69
2022/08/26 09:39:57;;;;;;;10.32;4.60;;;;;;;;;;5032133;28;20048;-69
2022/08/26 09:43:02;;;;;;;6.72;4.50;;;;;;;;;;5031592;28;20516;-69
2022/08/26 09:46:22;;;;;;;7.43;4.60;;;;;;;;;;5032466;28;20034;-68
2022/08/26 09:49:28;;;;;;;9.30;4.80;;;;;;;;;;5032737;28;20041;-69
2022/08/26 09:52:32;;;;;;;7.72;4.68;;;;;;;;;;5032326;28;20030;-68
2022/08/26 09:55:38;;;;;;;7.80;4.05;;;;;;;;;;5032455;28;20046;-69
2022/08/26 09:58:43;;;;;;;6.65;4.40;;;;;;;;;;5032277;28;20676;-69
2022/08/26 10:01:48;;;;;;;8.25;4.40;;;;;;;;;;5032314;28;20520;-67
2022/08/26 10:04:53;;;;;;;9.88;4.65;;;;;;;;;;5032645;28;20029;-66
2022/08/26 10:07:58;;;;;;;6.53;4.55;;;;;;;;;;5032002;28;20041;-68
2022/08/26 10:11:05;;;;;;;6.28;4.35;;;;;;;;;;5031961;28;20030;-68
2022/08/26 10:14:15;;;;;;;7.93;5.05;;;;;;;;;;5031948;28;20045;-67
2022/08/26 10:17:24;;;;;;;10.90;4.30;;;;;;;;;;5031959;28;20033;-67
2022/08/26 10:20:31;;;;;;;8.55;4.38;;;;;;;;;;5032070;28;20397;-66
2022/08/26 10:23:43;;;;;;;7.18;4.20;;;;;;;;;;5031987;28;20489;-66
2022/08/26 10:26:58;;;;;;;7.30;4.20;;;;;;;;;;5031923;28;20049;-67
2022/08/26 10:30:22;;;;;;;9.15;4.15;;;;;;;;;;5032011;28;20037;-67
2022/08/26 10:33:26;;;;;;;10.00;4.75;;;;;;;;;;5031623;28;20038;-67
2022/08/26 10:36:48;;;;;;;23.45;4.97;;;;;;;;;;5031121;28;20048;-67
2022/08/26 10:39:56;;;;;;;9.35;5.25;;;;;;;;;;5031574;28;20041;-67
2022/08/26 10:43:06;;;;;;;7.07;5.10;;;;;;;;;;5031408;28;20057;-66
2022/08/26 10:46:13;;;;;;;10.52;5.05;;;;;;;;;;5031074;28;20071;-67
2022/08/26 10:49:17;;;;;;;7.88;4.90;;;;;;;;;;5030698;28;20041;-67
2022/08/26 10:52:34;;;;;;;10.20;4.47;;;;;;;;;;5031481;28;20041;-67
2022/08/26 10:59:14;;;;;;;9.70;5.03;;;;;;;;;;5031614;28;20049;-67
2022/08/26 11:02:21;;;;;;;5.22;4.32;;;;;;;;;;5031057;28;20045;-67
2022/08/26 11:05:25;;;;;;;9.57;4.80;;;;;;;;;;5031071;28;20033;-67
2022/08/26 11:08:30;;;;;;;11.38;4.72;;;;;;;;;;5031084;28;20053;-67
2022/08/26 11:11:40;;;;;;;9.52;4.70;;;;;;;;;;5031511;28;20516;-67
2022/08/26 11:14:45;;;;;;;8.98;5.30;;;;;;;;;;5030269;28;20399;-67
2022/08/26 11:17:50;;;;;;;9.73;4.47;;;;;;;;;;5029927;28;20041;-67
2022/08/26 11:20:54;;;;;;;6.93;4.25;;;;;;;;;;5030705;28;20034;-67
2022/08/26 11:23:58;;;;;;;15.52;5.22;;;;;;;;;;5031123;28;20378;-67
2022/08/26 11:27:03;;;;;;;6.07;4.65;;;;;;;;;;5030686;28;20068;-66
2022/08/26 11:30:07;;;;;;;7.88;4.68;;;;;;;;;;5031118;28;20042;-67
2022/08/26 11:33:31;;;;;;;8.75;4.82;;;;;;;;;;5030954;28;20029;-67
2022/08/26 11:36:38;;;;;;;11.50;5.10;;;;;;;;;;5031515;28;20057;-67
2022/08/26 11:39:48;;;;;;;12.07;6.30;;;;;;;;;;5031114;28;20036;-67
2022/08/26 11:42:54;;;;;;;8.45;4.88;;;;;;;;;;5030577;28;20052;-67
2022/08/26 11:46:06;;;;;;;8.65;5.15;;;;;;;;;;5030591;28;20041;-67
2022/08/26 11:49:11;;;;;;;11.02;4.97;;;;;;;;;;5030663;28;20049;-67
2022/08/26 11:52:20;;;;;;;7.05;4.53;;;;;;;;;;5031008;28;20040;-66
2022/08/26 11:55:25;;;;;;;5.25;4.45;;;;;;;;;;5030592;28;20033;-67
2022/08/26 11:58:30;;;;;;;5.90;4.63;;;;;;;;;;5031212;28;20485;-67
2022/08/26 12:01:36;;;;;;;5.45;4.32;;;;;;;;;;5030532;28;20037;-68
2022/08/26 12:04:42;;;;;;;9.25;5.32;;;;;;;;;;5029799;28;20034;-67
2022/08/26 12:07:49;;;;;;;7.85;4.30;;;;;;;;;;5034467;28;20046;-69
2022/08/26 12:11:05;;;;;;;13.68;4.72;;;;;;;;;;5034057;28;20042;-67
2022/08/26 12:14:21;;;;;;;9.35;5.03;;;;;;;;;;5034700;28;20048;-69
2022/08/26 12:17:27;;;;;;;8.90;4.68;;;;;;;;;;5034476;28;20034;-67
2022/08/26 12:20:44;;;;;;;10.07;4.35;;;;;;;;;;5033212;28;20037;-67
2022/08/26 12:23:49;;;;;;;7.47;4.15;;;;;;;;;;5032772;28;20512;-67
2022/08/26 12:27:23;;;;;;;11.57;5.00;;;;;;;;;;5032219;28;20049;-68
2022/08/26 12:30:28;;;;;;;6.90;3.88;;;;;;;;;;5036195;28;20044;-68
2022/08/26 12:33:34;;;;;;;10.63;4.63;;;;;;;;;;5032249;28;20029;-67
2022/08/26 12:36:42;;;;;;;6.28;3.90;;;;;;;;;;5032200;28;20056;-67
2022/08/26 12:39:47;;;;;;;5.45;3.47;;;;;;;;;;5032283;28;20049;-66
2022/08/26 12:42:52;;;;;;;6.25;3.85;;;;;;;;;;5031794;28;20061;-67
2022/08/26 12:45:59;;;;;;;6.78;4.20;;;;;;;;;;5031772;28;20033;-66
2022/08/26 12:49:03;;;;;;;5.32;3.00;;;;;;;;;;5033584;28;20382;-67
2022/08/26 12:52:28;;;;;;;7.38;3.60;;;;;;;;;;5033910;28;20026;-67
2022/08/26 12:55:34;;;;;;;6.13;3.45;;;;;;;;;;5032475;28;20489;-66
2022/08/26 12:58:39;;;;;;;8.20;3.63;;;;;;;;;;5033507;28;20045;-66
2022/08/26 13:01:45;;;;;;;24.48;8.13;;;;;;;;;;5033717;28;20489;-66
2022/08/26 13:04:57;;;;;;;8.27;3.35;;;;;;;;;;5033136;28;20056;-66
2022/08/26 13:08:31;;;;;;;10.15;3.20;;;;;;;;;;5033691;28;20033;-66
2022/08/26 13:11:38;;;;;;;6.13;3.17;;;;;;;;;;5033283;28;20045;-66
2022/08/26 13:14:43;;;;;;;5.05;3.17;;;;;;;;;;5033557;28;20366;-66
2022/08/26 13:17:47;;;;;;;8.35;3.05;;;;;;;;;;5033142;28;20034;-66
2022/08/26 13:20:51;;;;;;;8.35;3.40;;;;;;;;;;5033042;28;20045;-66
2022/08/26 13:23:57;;;;;;;6.57;3.78;;;;;;;;;;5033098;28;20042;-66
2022/08/26 13:27:02;;;;;;;13.73;4.18;;;;;;;;;;5033045;28;20045;-65
2022/08/26 13:30:06;;;;;;;5.72;3.63;;;;;;;;;;5033220;28;20040;-66
2022/08/26 13:33:11;;;;;;;6.40;3.50;;;;;;;;;;5033296;28;20053;-65
2022/08/26 13:36:15;;;;;;;7.95;3.70;;;;;;;;;;5032723;28;20042;-65
2022/08/26 13:39:20;;;;;;;5.50;3.72;;;;;;;;;;5032882;28;20504;-65
2022/08/26 13:42:25;;;;;;;5.60;3.60;;;;;;;;;;5032690;28;20054;-67
2022/08/26 13:45:30;;;;;;;8.75;4.40;;;;;;;;;;5032293;28;20513;-66
2022/08/26 13:48:34;;;;;;;7.35;3.95;;;;;;;;;;5032491;28;20049;-68
2022/08/26 13:51:39;;;;;;;7.70;4.15;;;;;;;;;;5032432;28;20045;-67
2022/08/26 13:54:43;;;;;;;4.50;3.55;;;;;;;;;;5032469;28;20046;-67
2022/08/26 13:57:47;;;;;;;13.70;3.95;;;;;;;;;;5031372;28;20034;-68
2022/08/26 14:00:52;;;;;;;11.07;4.07;;;;;;;;;;5032372;28;20044;-67
2022/08/26 14:03:57;;;;;;;6.70;3.67;;;;;;;;;;5032408;28;20052;-67
2022/08/26 14:07:02;;;;;;;6.95;4.07;;;;;;;;;;5032301;28;20371;-67
2022/08/26 14:10:07;;;;;;;5.68;3.78;;;;;;;;;;5032421;28;20469;-67
2022/08/26 14:13:11;;;;;;;5.40;3.90;;;;;;;;;;5032423;28;20366;-67
2022/08/26 14:16:20;;;;;;;6.68;3.80;;;;;;;;;;5032072;28;20038;-67
2022/08/26 14:19:24;;;;;;;7.32;3.55;;;;;;;;;;5031636;28;20037;-66
2022/08/26 14:22:31;;;;;;;7.28;3.70;;;;;;;;;;5030786;28;20037;-67
2022/08/26 14:25:35;;;;;;;5.00;3.70;;;;;;;;;;5031395;28;20049;-67
2022/08/26 14:28:40;;;;;;;12.13;3.50;;;;;;;;;;5031240;28;20390;-67
2022/08/26 14:31:45;;;;;;;6.50;3.80;;;;;;;;;;5031657;28;20048;-67
2022/08/26 14:34:49;;;;;;;5.85;3.92;;;;;;;;;;5031749;28;20485;-67
2022/08/26 14:37:53;;;;;;;4.82;3.78;;;;;;;;;;5031854;28;20390;-68
2022/08/26 14:40:57;;;;;;;5.10;3.10;;;;;;;;;;5031950;28;20041;-67
2022/08/26 14:44:06;;;;;;;5.43;3.03;;;;;;;;;;5031498;28;20374;-66
2022/08/26 14:47:10;;;;;;;7.55;3.35;;;;;;;;;;5031453;28;20041;-66
2022/08/26 14:50:16;;;;;;;4.70;3.38;;;;;;;;;;5030632;28;20057;-67
2022/08/26 14:56:45;;;;;;;6.22;3.97;;;;;;;;;;5031139;28;20038;-68
2022/08/26 14:59:49;;;;;;;5.68;3.80;;;;;;;;;;5031747;28;20045;-68
2022/08/26 15:02:54;;;;;;;5.68;3.63;;;;;;;;;;5031397;28;20042;-68
2022/08/26 15:05:58;;;;;;;7.53;3.95;;;;;;;;;;5030735;28;20037;-68
2022/08/26 15:09:03;;;;;;;6.72;3.05;;;;;;;;;;5030485;28;20030;-68
2022/08/26 15:12:08;;;;;;;4.47;3.45;;;;;;;;;;5031159;28;20037;-67
2022/08/26 15:15:13;;;;;;;7.63;4.00;;;;;;;;;;5030553;28;20029;-68
2022/08/26 15:18:18;;;;;;;6.75;3.80;;;;;;;;;;5030761;28;20029;-66
2022/08/26 15:21:22;;;;;;;8.02;4.00;;;;;;;;;;5031200;28;20029;-68
2022/08/26 15:24:27;;;;;;;6.63;3.80;;;;;;;;;;5030603;28;20489;-66
2022/08/26 15:27:32;;;;;;;5.80;3.70;;;;;;;;;;5028911;28;20038;-68
2022/08/26 15:30:36;;;;;;;6.75;3.80;;;;;;;;;;5029512;28;20038;-68
2022/08/26 15:33:41;;;;;;;5.05;3.72;;;;;;;;;;5029629;28;20033;-68
2022/08/26 15:36:46;;;;;;;7.40;3.95;;;;;;;;;;5030126;28;20045;-66
2022/08/26 15:39:51;;;;;;;8.32;4.55;;;;;;;;;;5030982;28;20470;-67
2022/08/26 15:42:55;;;;;;;7.28;3.60;;;;;;;;;;5034908;28;20045;-67
2022/08/26 15:46:00;;;;;;;5.72;3.03;;;;;;;;;;5034512;28;20181;-68
2022/08/26 15:49:04;;;;;;;6.13;3.33;;;;;;;;;;5034682;28;20037;-67
2022/08/26 15:52:09;;;;;;;5.55;3.67;;;;;;;;;;5034740;28;20037;-68
2022/08/26 15:55:13;;;;;;;8.05;3.78;;;;;;;;;;5034719;28;20042;-67
2022/08/26 15:58:18;;;;;;;8.30;4.00;;;;;;;;;;5034823;28;20041;-67
2022/08/26 16:01:23;;;;;;;3.78;3.25;;;;;;;;;;5034477;28;20034;-67
2022/08/26 16:04:28;;;;;;;10.02;4.75;;;;;;;;;;5034703;28;20042;-67
2022/08/26 16:07:33;;;;;;;11.13;4.60;;;;;;;;;;5034397;28;20389;-67
2022/08/26 16:10:39;;;;;;;7.22;3.50;;;;;;;;;;5034225;28;20053;-67
2022/08/26 16:13:44;;;;;;;4.95;3.58;;;;;;;;;;5033541;28;20037;-68
2022/08/26 16:16:49;;;;;;;9.30;3.50;;;;;;;;;;5034450;28;20045;-68
2022/08/26 16:19:53;;;;;;;4.93;3.67;;;;;;;;;;5034045;28;20374;-68
2022/08/26 16:22:58;;;;;;;10.05;4.60;;;;;;;;;;5034161;28;20045;-68
2022/08/26 16:26:09;;;;;;;11.40;4.18;;;;;;;;;;5033067;28;20049;-67
2022/08/26 16:29:14;;;;;;;13.27;4.30;;;;;;;;;;5033821;28;20397;-67
2022/08/26 16:32:19;;;;;;;15.68;4.43;;;;;;;;;;5033916;28;20045;-68
2022/08/26 16:35:23;;;;;;;6.53;4.50;;;;;;;;;;5033693;28;20048;-68
2022/08/26 16:38:28;;;;;;;7.80;3.97;;;;;;;;;;5033568;28;20033;-68
2022/08/26 16:41:32;;;;;;;12.05;3.83;;;;;;;;;;5033731;28;20029;-67
2022/08/26 16:44:43;;;;;;;11.07;4.05;;;;;;;;;;5033670;28;20551;-67
2022/08/26 16:47:48;;;;;;;13.55;3.90;;;;;;;;;;5033516;28;20040;-67
2022/08/26 16:50:54;;;;;;;9.20;4.38;;;;;;;;;;5033191;28;20048;-68
2022/08/26 16:54:00;;;;;;;7.50;3.97;;;;;;;;;;5033604;28;20033;-67
2022/08/26 16:57:06;;;;;;;12.35;4.00;;;;;;;;;;5032596;28;20041;-69
2022/08/26 17:00:13;;;;;;;9.95;3.90;;;;;;;;;;5032080;28;20056;-67
2022/08/26 17:03:18;;;;;;;10.77;4.10;;;;;;;;;;5033038;28;20049;-67
2022/08/26 17:06:22;;;;;;;5.93;3.80;;;;;;;;;;5032915;28;20049;-68
2022/08/26 17:09:26;;;;;;;6.85;3.78;;;;;;;;;;5033098;28;20288;-67
2022/08/26 17:12:31;;;;;;;9.07;3.80;;;;;;;;;;5032094;28;20382;-67
2022/08/26 17:15:35;;;;;;;8.85;4.28;;;;;;;;;;5032744;28;20052;-67
2022/08/26 17:18:39;;;;;;;8.18;4.00;;;;;;;;;;5033080;28;20037;-67
2022/08/26 17:21:44;;;;;;;7.10;3.80;;;;;;;;;;5033414;28;20045;-71
2022/08/26 17:24:48;;;;;;;9.50;4.20;;;;;;;;;;5032090;28;20057;-71
2022/08/26 17:27:53;;;;;;;9.65;4.75;;;;;;;;;;5032572;28;20038;-71
2022/08/26 17:30:58;;;;;;;10.45;4.97;;;;;;;;;;5031998;28;20367;-71
2022/08/26 17:34:02;;;;;;;9.93;4.70;;;;;;;;;;5033085;28;20045;-72
2022/08/26 17:37:07;;;;;;;8.35;4.35;;;;;;;;;;5032892;28;20038;-72
2022/08/26 17:40:14;;;;;;;8.02;5.03;;;;;;;;;;5031936;28;20041;-72
2022/08/26 17:43:18;;;;;;;7.03;4.18;;;;;;;;;;5032438;28;20474;-71
2022/08/26 17:46:23;;;;;;;6.45;4.15;;;;;;;;;;5032601;28;20489;-71
2022/08/26 17:49:27;;;;;;;11.60;5.00;;;;;;;;;;5032548;28;20041;-72
2022/08/26 17:52:32;;;;;;;9.35;4.10;;;;;;;;;;5032218;28;20044;-71
2022/08/26 17:55:36;;;;;;;10.93;4.35;;;;;;;;;;5032309;28;20041;-71
2022/08/26 17:58:41;;;;;;;10.95;4.80;;;;;;;;;;5032243;28;20389;-70
2022/08/26 18:01:45;;;;;;;14.00;4.70;;;;;;;;;;5032388;28;20048;-72
2022/08/26 18:04:49;;;;;;;7.82;4.20;;;;;;;;;;5031719;28;20068;-72
2022/08/26 18:07:54;;;;;;;7.18;4.53;;;;;;;;;;5031383;28;20041;-71
2022/08/26 18:10:58;;;;;;;9.65;4.10;;;;;;;;;;5031856;28;20334;-71
2022/08/26 18:14:03;;;;;;;10.40;4.47;;;;;;;;;;5032072;28;20041;-71
2022/08/26 18:17:07;;;;;;;9.20;4.93;;;;;;;;;;5031804;28;20040;-70
2022/08/26 18:20:14;;;;;;;12.68;4.97;;;;;;;;;;5031219;28;20037;-71
2022/08/26 18:23:18;;;;;;;10.55;5.55;;;;;;;;;;5031772;28;20068;-70
2022/08/26 18:26:30;;;;;;;10.80;5.53;;;;;;;;;;5031767;28;20049;-71
2022/08/26 18:29:35;;;;;;;14.02;4.57;;;;;;;;;;5031001;28;20048;-72
2022/08/26 18:32:40;;;;;;;10.52;7.07;;;;;;;;;;5031340;28;20053;-70